• Join FlightAware (Why Join?)
  • Login
  • US Flag 
03:32AM EST


 

Airport Tracker/Info


-or-


 

Live Flight TrackerFlight Track Log ✈ MTN8305 ✈ 21-May-2013 ✈ KEWR - KBWI

Flight Track Log - Related Links

Times and Time Zones

All times are in EDT time to prevent confusion due to time zone crossing. See the MTN8305 flight status page for this flight to view local times or setup timezone preferences in your user account.

Time Position Orientation Groundspeed Altitude Reporting Facility
EDT Latitude Longitude Course Direction KTS MPH feet Rate Location/Type
04:10AM 40.6500 -74.2000 237° Southwest 107 123 1,100  Level New York TRACON
04:11AM 40.6333 -74.2333 237° Southwest 116 133 1,700 600 Climbing New York TRACON
04:12AM 40.6167 -74.2833 246° West 122 140 2,300 540 Climbing New York TRACON
04:13AM 40.6000 -74.3167 237° Southwest 123 142 2,900 480 Climbing New York TRACON
04:14AM 40.5833 -74.3500 237° Southwest 128 147 3,300 420 Climbing New York TRACON
04:15AM 40.5500 -74.3833 217° Southwest 129 148 3,800 300 Climbing New York TRACON
04:16AM 40.5333 -74.4167 237° Southwest 142 163 4,000 60 Climbing New York TRACON
04:17AM 40.5000 -74.4667 229° Southwest 152 175 4,000  Level New York TRACON
04:18AM 40.4833 -74.5167 246° West 152 175 4,000  Level New York TRACON
04:19AM 40.4500 -74.5500 217° Southwest 153 176 4,000  Level New York TRACON
04:21AM 40.4000 -74.6667 241° Southwest 156 180 4,100  Climbing Philadelphia TRACON
04:22AM 40.3667 -74.7000 217° Southwest 156 180 4,100  Level Philadelphia TRACON
04:23AM 40.3500 -74.7500 246° West 155 178 4,100  Level Philadelphia TRACON
04:24AM 40.3167 -74.8000 229° Southwest 155 178 4,100  Level Philadelphia TRACON
04:25AM 40.2833 -74.8333 217° Southwest 156 180 4,100  Level Philadelphia TRACON
04:26AM 40.2667 -74.8833 246° West 156 180 4,100  Level Philadelphia TRACON
04:27AM 40.2333 -74.9333 229° Southwest 156 180 4,100  Level Philadelphia TRACON
04:28AM 40.2167 -74.9667 237° Southwest 155 178 4,100  Level Philadelphia TRACON
04:29AM 40.1833 -75.0167 229° Southwest 157 181 4,100  Level Philadelphia TRACON
04:30AM 40.1500 -75.0667 229° Southwest 159 183 4,100  Level Philadelphia TRACON
04:31AM 40.1333 -75.1167 246° West 159 183 4,100  Level Philadelphia TRACON
04:32AM 40.1000 -75.1500 217° Southwest 156 180 4,100  Level Philadelphia TRACON
04:33AM 40.0667 -75.2000 229° Southwest 157 181 4,100  Level Philadelphia TRACON
04:34AM 40.0500 -75.2500 246° West 155 178 4,100  Level Philadelphia TRACON
04:35AM 40.0167 -75.2833 217° Southwest 156 180 4,100  Level Philadelphia TRACON
04:36AM 40.0000 -75.3333 246° West 155 178 4,100  Level Philadelphia TRACON
04:37AM 39.9667 -75.3833 229° Southwest 154 177 4,100  Level Philadelphia TRACON
04:39AM 39.9333 -75.4167 217° Southwest 154 177 4,100  Level Philadelphia TRACON
04:40AM 39.9167 -75.4667 247° West 155 178 4,100  Level Philadelphia TRACON
04:41AM 39.8833 -75.5167 229° Southwest 156 180 4,100  Level Philadelphia TRACON
04:42AM 39.8500 -75.5667 229° Southwest 154 177 4,100  Level Philadelphia TRACON
04:43AM 39.8333 -75.6000 237° Southwest 156 180 4,100  Level Philadelphia TRACON
04:44AM 39.8000 -75.6500 229° Southwest 157 181 4,100  Level Philadelphia TRACON
04:45AM 39.7833 -75.7000 247° West 156 180 4,100  Level Philadelphia TRACON
04:46AM 39.7500 -75.7500 229° Southwest 157 181 4,100  Level Philadelphia TRACON
04:47AM 39.7167 -75.7833 218° Southwest 158 182 4,100  Level Philadelphia TRACON
04:48AM 39.7000 -75.8333 247° West 158 182 4,100  Level Philadelphia TRACON
04:49AM 39.6667 -75.8667 218° Southwest 157 181 4,100  Level Philadelphia TRACON
04:50AM 39.6333 -75.9167 229° Southwest 156 180 4,100 -60 Level Philadelphia TRACON
04:51AM 39.6167 -75.9500 237° Southwest 156 180 4,000 -60 Descending Potomac TRACON
04:52AM 39.6000 -76.0000 247° West 153 176 4,000  Level Potomac TRACON
04:53AM 39.5667 -76.0333 218° Southwest 155 178 4,000  Level Potomac TRACON
04:54AM 39.5167 -76.0667 207° Southwest 158 182 4,000  Level Potomac TRACON
04:55AM 39.4833 -76.0833 201° Southwest 157 181 4,000  Level Potomac TRACON
04:56AM 39.4333 -76.1167 207° Southwest 155 178 4,100  Climbing Philadelphia TRACON
04:56AM 39.4333 -76.1167 207° Southwest 155 178 4,000  Descending Potomac TRACON
04:56AM 39.4000 -76.1333 201° Southwest 155 178 4,100  Climbing Philadelphia TRACON
04:57AM 39.3667 -76.1667 218° Southwest 155 178 4,100  Level Philadelphia TRACON
04:58AM 39.3333 -76.1833 201° Southwest 156 180 4,100 -120 Level Philadelphia TRACON
05:00AM 39.2833 -76.2167 207° Southwest 155 178 3,900 -360 Descending Potomac TRACON
05:01AM 39.2500 -76.2500 218° Southwest 167 192 3,400 -480 Descending Potomac TRACON
05:02AM 39.2000 -76.2667 194° South 170 196 3,000 -300 Descending Potomac TRACON
05:03AM 39.1667 -76.3000 218° Southwest 159 183 2,900 -360 Descending Potomac TRACON
05:04AM 39.1333 -76.3333 218° Southwest 172 198 2,300 -480 Descending Potomac TRACON
05:05AM 39.1000 -76.3667 218° Southwest 165 190 2,000 -180 Descending Potomac TRACON
05:06AM 39.0667 -76.4167 229° Southwest 154 177 2,000  Level Potomac TRACON
05:07AM 39.0500 -76.4667 247° West 149 171 2,000  Level Potomac TRACON
05:08AM 39.0500 -76.5167 270° West 157 181 2,000  Level Potomac TRACON
05:09AM 39.0833 -76.5667 311° West 159 183 2,000 -300 Level Potomac TRACON
05:10AM 39.1167 -76.6000 322° Northwest 169 194 1,500 -660 Descending Potomac TRACON
05:11AM 39.1500 -76.6333 322° Northwest 176 203 700 -840 Descending Potomac TRACON
05:13AM 39.1667 -76.6667 270° West  Level FlightAware Approximate
05:20AM 39.1754 -76.6683 270° West  Level Estimated
05:21AM 39.1754 -76.6683 270° West  Level Estimated
05:22AM 39.1754 -76.6683 270° West  Level Estimated